Time;durP1;ratioP1;P1;durP2;ratioP2;P2;SDS_P1;SDS_P2;PMS_P1;PMS_P2;Temp;Humidity;BMP_temperature;BMP_pressure;BME280_temperature;BME280_humidity;BME280_pressure;Samples;Min_cycle;Max_cycle;Signal;HPM_P1;HPM_P2
2022/01/11 00:01:29;;;;;;;56.08;25.58;;;-0.60;99.90;;;;;;4955340;29;20423;-80
2022/01/11 00:03:55;;;;;;;;;;;-0.60;99.90;;;;;;4954439;29;20054;-80
2022/01/11 00:08:51;;;;;;;25.67;12.40;;;-0.50;99.90;;;;;;4972454;29;20058;-80
2022/01/11 00:11:16;;;;;;;28.17;13.48;;;-0.40;99.90;;;;;;4971869;29;20023;-80
2022/01/11 00:13:42;;;;;;;;;;;-0.40;99.90;;;;;;4955841;29;20066;-80
2022/01/11 00:16:11;;;;;;;33.03;14.48;;;-0.40;99.90;;;;;;4954424;29;20013;-79
2022/01/11 00:18:36;;;;;;;28.05;12.82;;;-0.40;99.90;;;;;;4971676;29;20023;-81
2022/01/11 00:21:02;;;;;;;;;;;-0.50;99.90;;;;;;4975715;29;20024;-82
2022/01/11 00:25:55;;;;;;;;;;;-0.60;99.90;;;;;;4971958;29;20035;-80
2022/01/11 00:28:23;;;;;;;25.17;12.25;;;-0.60;99.90;;;;;;4953670;29;19917;-80
2022/01/11 00:30:50;;;;;;;24.10;8.85;;;-0.70;99.90;;;;;;4955479;29;20051;-81
2022/01/11 00:33:26;;;;;;;22.20;7.63;;;-0.60;99.90;;;;;;4971580;29;20035;-82
2022/01/11 00:36:00;;;;;;;22.70;10.37;;;-0.50;99.90;;;;;;4972567;29;20019;-81
2022/01/11 00:38:28;;;;;;;20.20;9.70;;;-0.40;99.90;;;;;;4955455;29;20282;-80
2022/01/11 00:40:57;;;;;;;21.02;9.48;;;-0.40;99.90;;;;;;4972436;28;20090;-81
2022/01/11 00:43:26;;;;;;;28.83;10.93;;;-0.40;99.90;;;;;;4954201;29;20033;-79
2022/01/11 00:45:53;;;;;;;24.88;10.27;;;-0.50;99.90;;;;;;4949288;29;20035;-80
2022/01/11 00:48:19;;;;;;;29.88;13.00;;;-0.60;99.90;;;;;;4955092;29;20122;-79
2022/01/11 00:50:44;;;;;;;;;;;-0.70;99.90;;;;;;4973411;28;20043;-80
2022/01/11 00:53:11;;;;;;;35.50;15.98;;;-0.80;99.90;;;;;;4970634;28;19910;-80
2022/01/11 00:55:38;;;;;;;31.15;14.18;;;-0.90;99.90;;;;;;4953907;29;20098;-81
2022/01/11 00:58:04;;;;;;;27.05;12.70;;;-1.00;99.90;;;;;;4981523;28;20034;-81
2022/01/11 01:00:35;;;;;;;26.38;12.60;;;-1.00;99.90;;;;;;4982737;29;20008;-82
2022/01/11 01:03:01;;;;;;;29.65;14.75;;;-1.10;99.90;;;;;;4981062;28;20054;-80
2022/01/11 01:05:27;;;;;;;;;;;-1.10;99.90;;;;;;4951654;29;20019;-81
2022/01/11 01:07:53;;;;;;;33.08;14.65;;;-1.10;99.90;;;;;;4952800;29;19906;-80
2022/01/11 01:12:51;;;;;;;21.23;9.88;;;-1.20;99.90;;;;;;4972207;29;19914;-79
2022/01/11 01:15:18;;;;;;;11.82;6.13;;;-1.20;99.90;;;;;;4956521;29;20038;-80
2022/01/11 01:17:44;;;;;;;9.02;4.28;;;-1.10;99.90;;;;;;4957068;29;20027;-80
2022/01/11 01:20:10;;;;;;;;;;;-0.80;99.90;;;;;;4957582;29;20038;-79
2022/01/11 01:22:35;;;;;;;9.85;4.25;;;-0.70;99.90;;;;;;4956282;29;19910;-80
2022/01/11 01:25:01;;;;;;;;;;;-0.50;99.90;;;;;;4977058;28;20020;-81
2022/01/11 01:27:26;;;;;;;10.55;4.65;;;-0.40;99.90;;;;;;4974121;28;19906;-79
2022/01/11 01:29:52;;;;;;;;;;;-0.40;99.90;;;;;;4974931;29;20038;-80
2022/01/11 01:32:18;;;;;;;16.33;6.78;;;-0.40;99.90;;;;;;4950145;29;19917;-79
2022/01/11 01:34:43;;;;;;;;;;;-0.50;99.90;;;;;;4964773;28;20097;-79
2022/01/11 01:37:09;;;;;;;16.35;8.18;;;-0.70;99.90;;;;;;4946813;29;20461;-79
2022/01/11 01:39:35;;;;;;;;;;;-0.80;99.90;;;;;;4945738;29;20098;-78
2022/01/11 01:42:05;;;;;;;18.73;9.52;;;-0.90;99.90;;;;;;4964527;28;20529;-78
2022/01/11 01:44:33;;;;;;;20.38;8.40;;;-1.10;99.90;;;;;;4954125;29;20031;-78
2022/01/11 01:46:59;;;;;;;15.98;8.57;;;-1.10;99.90;;;;;;4970121;28;20018;-78
2022/01/11 01:49:25;;;;;;;;;;;-1.20;99.90;;;;;;4945692;29;20038;-79
2022/01/11 01:51:52;;;;;;;18.23;7.50;;;-1.30;99.90;;;;;;4972691;28;19910;-80
2022/01/11 01:54:18;;;;;;;19.58;8.32;;;-1.40;99.90;;;;;;4950096;29;20059;-80
2022/01/11 01:56:44;;;;;;;21.30;8.48;;;-1.40;99.90;;;;;;4960403;29;20023;-79
2022/01/11 01:59:11;;;;;;;19.23;9.43;;;-1.40;99.90;;;;;;4939137;29;20109;-79
2022/01/11 02:01:44;;;;;;;21.27;9.05;;;-1.20;99.90;;;;;;4939682;29;20023;-79
2022/01/11 02:04:10;;;;;;;14.52;6.80;;;-1.20;99.90;;;;;;4939868;29;20067;-79
2022/01/11 02:06:36;;;;;;;;;;;-1.10;99.90;;;;;;4941388;28;20019;-79
2022/01/11 02:09:03;;;;;;;12.90;5.68;;;-1.00;99.90;;;;;;4941301;29;20294;-79
2022/01/11 02:11:30;;;;;;;11.48;4.97;;;-0.90;99.90;;;;;;4942326;29;20054;-78
2022/01/11 02:13:56;;;;;;;11.48;5.40;;;-0.80;99.90;;;;;;4942064;29;20125;-79
2022/01/11 02:16:22;;;;;;;;;;;-0.60;99.90;;;;;;4945770;29;20079;-80
2022/01/11 02:18:49;;;;;;;11.15;5.15;;;-0.50;99.90;;;;;;4949798;29;19946;-81
2022/01/11 02:21:15;;;;;;;10.77;4.93;;;-0.40;99.90;;;;;;4948896;29;20038;-80
2022/01/11 02:23:40;;;;;;;;;;;-0.30;99.90;;;;;;4949773;29;20066;-80
2022/01/11 02:26:06;;;;;;;16.92;6.65;;;-0.10;99.90;;;;;;4965271;29;19957;-80
2022/01/11 02:28:32;;;;;;;;;;;-0.20;99.90;;;;;;4948554;29;20050;-79
2022/01/11 02:30:59;;;;;;;17.73;8.73;;;-0.20;99.90;;;;;;4965766;29;20392;-80
2022/01/11 02:33:38;;;;;;;9.63;3.78;;;-0.30;99.90;;;;;;4948552;29;20043;-79
2022/01/11 02:36:18;;;;;;;11.05;5.05;;;-0.10;99.90;;;;;;4948451;29;20094;-80
2022/01/11 02:38:43;;;;;;;7.88;4.07;;;0.00;99.90;;;;;;4947974;29;20027;-79
2022/01/11 02:41:09;;;;;;;;;;;0.10;99.90;;;;;;4947591;29;20028;-80
2022/01/11 02:43:39;;;;;;;11.18;4.22;;;0.10;99.90;;;;;;4948227;29;19977;-79
2022/01/11 02:46:05;;;;;;;10.35;4.97;;;0.10;99.90;;;;;;4954720;29;20035;-82
2022/01/11 02:48:30;;;;;;;;;;;0.00;99.90;;;;;;4959105;29;20503;-81
2022/01/11 02:50:56;;;;;;;11.85;4.78;;;0.10;99.90;;;;;;4957878;29;19942;-79
2022/01/11 02:53:21;;;;;;;;;;;0.10;99.90;;;;;;4958573;29;20039;-81
2022/01/11 02:55:47;;;;;;;15.55;5.97;;;0.10;99.90;;;;;;4971720;29;20286;-80
2022/01/11 02:58:13;;;;;;;;;;;0.20;99.90;;;;;;4974050;29;20029;-81
2022/01/11 03:00:40;;;;;;;10.50;5.10;;;0.10;99.90;;;;;;4976358;29;19925;-80
2022/01/11 03:03:13;;;;;;;10.70;5.30;;;0.10;99.90;;;;;;4975142;29;20578;-81
2022/01/11 03:05:51;;;;;;;13.80;6.05;;;0.00;99.90;;;;;;4976415;28;20059;-81
2022/01/11 03:08:18;;;;;;;12.63;6.53;;;0.00;99.90;;;;;;4968886;29;20023;-80
2022/01/11 03:10:45;;;;;;;9.95;5.60;;;-0.10;99.90;;;;;;4962508;28;20078;-79
2022/01/11 03:13:12;;;;;;;18.58;6.07;;;-0.20;99.90;;;;;;4963505;29;20440;-78
2022/01/11 03:15:38;;;;;;;10.75;5.40;;;-0.20;99.90;;;;;;4952247;29;20026;-81
2022/01/11 03:18:05;;;;;;;11.02;5.18;;;-0.30;99.90;;;;;;4954010;29;20031;-80
2022/01/11 03:20:35;;;;;;;11.07;5.45;;;-0.30;99.90;;;;;;4952992;29;20100;-79
2022/01/11 03:23:01;;;;;;;12.77;6.07;;;-0.40;99.90;;;;;;4961129;29;20035;-80
2022/01/11 03:25:27;;;;;;;;;;;-0.50;99.90;;;;;;4944655;29;20118;-79
2022/01/11 03:27:52;;;;;;;14.60;7.22;;;-0.70;99.90;;;;;;4961904;29;19906;-80
2022/01/11 03:30:18;;;;;;;;;;;-0.90;99.90;;;;;;4967425;29;20075;-79
2022/01/11 03:32:45;;;;;;;15.48;7.07;;;-1.00;99.90;;;;;;4968568;28;19918;-80
2022/01/11 03:35:12;;;;;;;15.13;7.45;;;-1.10;99.90;;;;;;4949249;29;20042;-79
2022/01/11 03:37:39;;;;;;;22.45;9.05;;;-1.10;99.90;;;;;;4950865;29;20082;-80
2022/01/11 03:40:09;;;;;;;21.77;9.55;;;-1.10;99.90;;;;;;4969482;29;20046;-80
2022/01/11 03:42:35;;;;;;;22.95;9.23;;;-1.20;99.90;;;;;;4953698;29;20027;-79
2022/01/11 03:45:01;;;;;;;;;;;-1.30;99.90;;;;;;4968440;29;20158;-80
2022/01/11 03:47:26;;;;;;;20.42;8.52;;;-1.50;99.90;;;;;;4948113;29;19917;-80
2022/01/11 03:49:52;;;;;;;;;;;-1.50;99.90;;;;;;4967430;28;20039;-80
2022/01/11 03:52:18;;;;;;;21.05;8.73;;;-1.50;99.90;;;;;;4956633;29;19906;-80
2022/01/11 03:57:28;;;;;;;14.48;6.90;;;-1.60;99.90;;;;;;4973262;29;19938;-81
2022/01/11 03:59:54;;;;;;;16.95;7.90;;;-1.60;99.90;;;;;;4957346;29;20031;-81
2022/01/11 04:02:19;;;;;;;;;;;-1.60;99.90;;;;;;4954462;29;20053;-80
2022/01/11 04:04:52;;;;;;;17.17;7.75;;;-1.50;99.90;;;;;;4953815;29;20004;-80
2022/01/11 04:07:19;;;;;;;17.65;7.80;;;-1.60;99.90;;;;;;4972139;29;20047;-80
2022/01/11 04:09:44;;;;;;;47.42;16.75;;;-1.60;99.90;;;;;;4953620;29;20020;-81
2022/01/11 04:12:10;;;;;;;;;;;-1.80;99.90;;;;;;4953239;29;20038;-80
2022/01/11 04:14:36;;;;;;;26.00;10.10;;;-1.90;99.90;;;;;;4967927;29;19914;-79
2022/01/11 04:17:02;;;;;;;26.23;11.23;;;-2.00;99.90;;;;;;4951883;29;20082;-80
2022/01/11 04:19:28;;;;;;;;;;;-2.10;99.90;;;;;;4968765;29;20023;-80
2022/01/11 04:21:53;;;;;;;62.42;22.70;;;-2.10;99.90;;;;;;4974503;28;19891;-81
2022/01/11 04:24:19;;;;;;;;;;;-2.20;99.90;;;;;;4959034;29;20043;-80
2022/01/11 04:26:44;;;;;;;52.45;21.35;;;-2.20;99.90;;;;;;4969382;29;19910;-80
2022/01/11 04:29:10;;;;;;;;;;;-2.20;99.90;;;;;;4950740;29;20046;-81
2022/01/11 04:31:36;;;;;;;34.67;13.75;;;-2.10;99.90;;;;;;4950593;29;19917;-81
2022/01/11 04:34:01;;;;;;;;;;;-2.10;99.90;;;;;;4968981;29;20415;-80
2022/01/11 04:36:27;;;;;;;18.17;9.20;;;-2.10;99.90;;;;;;4951621;29;19906;-80
2022/01/11 04:38:53;;;;;;;19.95;9.52;;;-2.20;99.90;;;;;;4951289;29;20058;-80
2022/01/11 04:41:19;;;;;;;;;;;-2.20;99.90;;;;;;4952245;29;20078;-80
2022/01/11 04:43:45;;;;;;;17.17;8.77;;;-2.20;99.90;;;;;;4969005;29;19930;-79
2022/01/11 04:46:10;;;;;;;;;;;-2.30;99.90;;;;;;4969172;29;20083;-80
2022/01/11 04:48:36;;;;;;;11.77;5.50;;;-2.10;99.90;;;;;;4951737;29;19906;-80
2022/01/11 04:51:02;;;;;;;;;;;-1.90;99.90;;;;;;4957900;29;20035;-81
2022/01/11 04:53:28;;;;;;;12.27;5.55;;;-1.40;99.90;;;;;;4958519;29;19985;-79
2022/01/11 04:55:54;;;;;;;;;;;-1.10;99.90;;;;;;4952400;29;20039;-80
2022/01/11 04:58:19;;;;;;;19.17;8.27;;;-1.00;99.90;;;;;;4950240;29;19914;-79
2022/01/11 05:00:45;;;;;;;;;;;-1.00;99.90;;;;;;4949747;29;20031;-79
2022/01/11 05:03:10;;;;;;;10.95;5.65;;;-1.20;99.90;;;;;;4947061;29;19942;-80
2022/01/11 05:05:36;;;;;;;;;;;-1.20;99.90;;;;;;4964804;29;20027;-80
2022/01/11 05:08:04;;;;;;;13.15;5.22;;;-1.20;99.90;;;;;;4962227;29;20335;-80
2022/01/11 05:10:30;;;;;;;12.63;6.03;;;-1.00;99.90;;;;;;4946643;29;20027;-78
2022/01/11 05:12:56;;;;;;;;;;;-1.00;99.90;;;;;;4947362;29;20075;-80
2022/01/11 05:15:25;;;;;;;10.02;4.82;;;-0.90;99.90;;;;;;4966785;29;20001;-81
2022/01/11 05:17:52;;;;;;;12.10;6.18;;;-0.80;99.90;;;;;;4967427;29;20027;-81
2022/01/11 05:20:18;;;;;;;10.82;5.00;;;-0.80;99.90;;;;;;4965612;29;20023;-80
2022/01/11 05:22:47;;;;;;;;;;;-0.70;99.90;;;;;;4967796;29;20039;-80
2022/01/11 05:25:14;;;;;;;11.45;4.70;;;-0.50;99.90;;;;;;4970101;28;19913;-79
2022/01/11 05:27:41;;;;;;;13.43;6.18;;;-0.60;99.90;;;;;;4948067;29;20027;-77
2022/01/11 05:30:08;;;;;;;11.32;5.78;;;-0.60;99.90;;;;;;4945721;29;20058;-80
2022/01/11 05:32:35;;;;;;;11.70;5.30;;;-0.70;99.90;;;;;;4943745;29;20463;-80
2022/01/11 05:35:03;;;;;;;12.73;6.15;;;-0.70;99.90;;;;;;4947656;29;20031;-79
2022/01/11 05:37:29;;;;;;;11.32;5.82;;;-0.70;99.90;;;;;;4963746;28;20625;-79
2022/01/11 05:39:54;;;;;;;;;;;-0.80;99.90;;;;;;4965060;28;20071;-80
2022/01/11 05:42:24;;;;;;;11.85;6.70;;;-0.90;99.90;;;;;;4948634;29;19943;-80
2022/01/11 05:44:50;;;;;;;15.93;7.10;;;-1.00;99.90;;;;;;4948682;29;20050;-80
2022/01/11 05:47:15;;;;;;;;;;;-1.20;99.90;;;;;;4965819;29;20031;-80
2022/01/11 05:49:41;;;;;;;11.05;5.47;;;-1.30;99.90;;;;;;4974253;29;19906;-79
2022/01/11 05:52:06;;;;;;;;;;;-1.40;99.90;;;;;;4957707;29;20031;-81
2022/01/11 05:54:32;;;;;;;11.73;5.60;;;-1.50;99.90;;;;;;4957490;29;20287;-81
2022/01/11 05:56:58;;;;;;;;;;;-1.40;99.90;;;;;;4958577;29;20028;-81
2022/01/11 05:59:24;;;;;;;10.20;5.00;;;-1.50;99.90;;;;;;4974851;29;19907;-83
2022/01/11 06:01:50;;;;;;;;;;;-1.50;99.90;;;;;;4955824;29;20027;-80
2022/01/11 06:04:15;;;;;;;15.23;6.22;;;-1.50;99.90;;;;;;4954453;29;19961;-79
2022/01/11 06:06:41;;;;;;;;;;;-1.50;99.90;;;;;;4970878;29;20023;-80
2022/01/11 06:09:07;;;;;;;13.43;5.55;;;-1.50;99.90;;;;;;4951235;29;20030;-80
2022/01/11 06:11:33;;;;;;;;;;;-1.50;99.90;;;;;;4970699;29;20492;-81
2022/01/11 06:13:58;;;;;;;16.20;6.53;;;-1.50;99.90;;;;;;4973062;28;19985;-81
2022/01/11 06:16:24;;;;;;;;;;;-1.50;99.90;;;;;;4952697;29;20034;-81
2022/01/11 06:18:50;;;;;;;16.50;6.63;;;-1.50;99.90;;;;;;4974285;29;19907;-81
2022/01/11 06:21:16;;;;;;;21.42;8.20;;;-1.60;99.90;;;;;;4961898;29;20011;-82
2022/01/11 06:23:42;;;;;;;;;;;-1.40;99.90;;;;;;4976311;29;20023;-81
2022/01/11 06:26:08;;;;;;;15.95;6.18;;;-1.30;99.90;;;;;;4971567;29;19911;-81
2022/01/11 06:28:34;;;;;;;11.57;4.93;;;-1.40;99.90;;;;;;4958067;29;20022;-80
2022/01/11 06:31:00;;;;;;;17.95;7.70;;;-1.20;99.90;;;;;;4975077;29;20034;-80
2022/01/11 06:33:26;;;;;;;;;;;-1.20;99.90;;;;;;4958355;29;20090;-81
2022/01/11 06:35:52;;;;;;;103.60;37.13;;;-1.10;99.90;;;;;;4952563;29;19914;-78
2022/01/11 06:38:17;;;;;;;;;;;-1.10;99.90;;;;;;4954615;28;20019;-78
2022/01/11 06:40:43;;;;;;;15.02;5.78;;;-1.20;99.90;;;;;;4971866;29;19894;-79
2022/01/11 06:43:08;;;;;;;;;;;-1.10;99.90;;;;;;4977997;28;20071;-80
2022/01/11 06:45:35;;;;;;;20.92;9.95;;;-1.00;99.90;;;;;;4956882;29;19966;-81
2022/01/11 06:48:01;;;;;;;14.82;7.07;;;-1.10;99.90;;;;;;4978787;29;20032;-82
2022/01/11 06:50:28;;;;;;;22.90;10.02;;;-0.90;99.90;;;;;;4978085;29;20059;-83
2022/01/11 06:52:54;;;;;;;18.08;9.48;;;-1.10;99.90;;;;;;4960656;29;20027;-80
2022/01/11 06:55:20;;;;;;;15.95;6.63;;;-0.90;99.90;;;;;;4979941;28;20043;-81
2022/01/11 06:57:47;;;;;;;18.17;8.73;;;-0.90;99.90;;;;;;4980494;28;20004;-82
2022/01/11 07:00:14;;;;;;;14.65;5.40;;;-0.70;99.90;;;;;;5318437;23;20122;-81
2022/01/11 07:02:40;;;;;;;9.70;4.63;;;-0.50;99.90;;;;;;4999858;28;20017;-81
2022/01/11 07:05:06;;;;;;;;;;;-0.50;99.10;;;;;;4982392;28;20023;-81
2022/01/11 07:07:32;;;;;;;13.63;5.57;;;-0.50;98.10;;;;;;4979866;28;19890;-81
2022/01/11 07:09:58;;;;;;;;;;;-0.30;97.60;;;;;;4982096;28;20030;-80
2022/01/11 07:12:24;;;;;;;12.98;4.93;;;-0.20;97.30;;;;;;4981588;28;19969;-81
2022/01/11 07:14:50;;;;;;;;;;;-0.10;97.20;;;;;;4982607;28;20035;-81
2022/01/11 07:17:16;;;;;;;14.98;6.35;;;0.10;95.60;;;;;;4980563;28;19970;-81
2022/01/11 07:19:42;;;;;;;;;;;0.20;95.30;;;;;;4995564;28;20046;-82
2022/01/11 07:22:09;;;;;;;13.95;6.70;;;0.40;94.90;;;;;;4980086;28;19906;-81
2022/01/11 07:24:34;;;;;;;13.38;7.18;;;0.50;92.50;;;;;;4996703;28;20029;-81
2022/01/11 07:27:00;;;;;;;;;;;0.70;92.10;;;;;;4997004;28;20046;-81
2022/01/11 07:29:26;;;;;;;11.68;5.20;;;0.90;89.80;;;;;;4997789;28;19986;-80
2022/01/11 07:31:52;;;;;;;;;;;1.00;89.40;;;;;;4996528;28;20030;-80
2022/01/11 07:34:18;;;;;;;13.73;5.25;;;1.10;85.50;;;;;;4997472;28;19918;-80
2022/01/11 07:36:44;;;;;;;13.52;6.18;;;1.10;86.80;;;;;;4996723;28;20018;-79
2022/01/11 07:39:12;;;;;;;16.30;6.07;;;1.10;86.30;;;;;;4980384;28;20034;-81
2022/01/11 07:41:39;;;;;;;9.80;4.95;;;1.00;85.90;;;;;;4980677;28;20122;-81
2022/01/11 07:44:05;;;;;;;15.57;6.38;;;0.90;87.70;;;;;;4998010;28;20030;-81
2022/01/11 07:46:31;;;;;;;15.52;5.75;;;1.00;86.20;;;;;;4996798;28;20127;-81
2022/01/11 07:48:59;;;;;;;16.55;6.53;;;1.00;86.00;;;;;;4997143;28;20026;-81
2022/01/11 07:51:26;;;;;;;9.88;4.47;;;1.00;84.40;;;;;;4983388;28;20018;-80
2022/01/11 07:53:52;;;;;;;12.45;5.38;;;1.20;79.90;;;;;;4997109;28;20054;-81
2022/01/11 07:56:19;;;;;;;8.32;3.80;;;1.40;79.70;;;;;;4979696;28;20075;-81
2022/01/11 07:58:45;;;;;;;10.93;5.82;;;1.60;77.10;;;;;;4980557;28;20039;-81
2022/01/11 08:01:11;;;;;;;15.88;4.55;;;1.70;74.80;;;;;;4980001;28;20049;-81
2022/01/11 08:03:37;;;;;;;;;;;2.00;71.90;;;;;;4997475;28;20031;-78
2022/01/11 08:06:04;;;;;;;9.50;3.92;;;2.00;72.80;;;;;;4979483;28;19913;-81
2022/01/11 08:08:30;;;;;;;11.25;3.63;;;2.00;70.00;;;;;;4980471;28;20027;-81
2022/01/11 08:10:56;;;;;;;;;;;2.30;69.10;;;;;;4997274;28;20050;-80
2022/01/11 08:13:23;;;;;;;14.75;5.63;;;2.30;67.60;;;;;;4980175;28;19910;-82
2022/01/11 08:15:49;;;;;;;10.25;4.72;;;2.50;67.80;;;;;;4996867;28;20011;-81
2022/01/11 08:18:15;;;;;;;9.00;3.58;;;2.40;68.20;;;;;;4980541;28;20030;-80
2022/01/11 08:20:41;;;;;;;;;;;2.20;66.80;;;;;;4980640;28;20038;-81
2022/01/11 08:23:07;;;;;;;10.93;4.97;;;2.40;67.40;;;;;;4979211;28;19917;-81
2022/01/11 08:25:33;;;;;;;;;;;2.50;67.10;;;;;;4996925;28;20031;-81
2022/01/11 08:27:59;;;;;;;9.98;4.35;;;2.50;65.90;;;;;;4977655;28;19966;-81
2022/01/11 08:30:25;;;;;;;13.13;4.80;;;2.70;65.60;;;;;;4978624;28;20021;-80
2022/01/11 08:32:52;;;;;;;12.50;5.28;;;2.90;64.70;;;;;;4994695;28;20078;-81
2022/01/11 08:35:18;;;;;;;14.60;6.70;;;2.90;64.00;;;;;;4995448;28;20094;-81
2022/01/11 08:37:44;;;;;;;;;;;3.00;64.10;;;;;;4995176;28;20010;-81
2022/01/11 08:40:11;;;;;;;11.30;5.20;;;3.00;64.00;;;;;;4978552;28;19910;-82
2022/01/11 08:42:38;;;;;;;12.30;5.68;;;3.10;63.70;;;;;;4995474;28;20172;-82
2022/01/11 08:45:05;;;;;;;12.18;5.30;;;3.30;63.20;;;;;;4977583;28;20094;-82
2022/01/11 08:47:32;;;;;;;12.95;6.15;;;3.30;62.60;;;;;;4975941;28;20014;-82
2022/01/11 08:49:59;;;;;;;11.20;5.00;;;3.40;62.70;;;;;;4975692;28;20027;-82
2022/01/11 08:52:29;;;;;;;18.95;6.40;;;3.40;61.70;;;;;;4975253;28;20119;-82
2022/01/11 08:54:55;;;;;;;11.40;5.47;;;3.40;61.90;;;;;;4992684;28;20062;-82
2022/01/11 08:57:21;;;;;;;;;;;3.20;62.50;;;;;;4993290;28;20026;-82
2022/01/11 08:59:47;;;;;;;42.35;17.27;;;3.30;62.00;;;;;;4993668;28;19977;-82
2022/01/11 09:02:13;;;;;;;14.90;7.97;;;2.90;64.60;;;;;;4991989;28;20050;-81
2022/01/11 09:04:40;;;;;;;13.50;6.75;;;2.70;65.50;;;;;;4993932;28;20023;-80
2022/01/11 09:07:06;;;;;;;48.00;26.85;;;2.60;66.70;;;;;;4994599;28;20079;-81
2022/01/11 09:09:33;;;;;;;61.00;34.53;;;2.50;68.50;;;;;;4979848;28;20142;-81
2022/01/11 09:12:03;;;;;;;28.15;17.23;;;2.50;68.80;;;;;;4997488;28;20022;-81
2022/01/11 09:14:30;;;;;;;20.63;7.93;;;2.40;70.00;;;;;;4996642;28;20546;-81
2022/01/11 09:16:57;;;;;;;21.25;11.25;;;2.60;68.70;;;;;;4981339;28;20035;-82
2022/01/11 09:19:23;;;;;;;19.77;10.18;;;2.60;69.50;;;;;;4982238;28;20011;-83
2022/01/11 09:21:48;;;;;;;;;;;2.50;70.40;;;;;;4998940;28;20011;-82
2022/01/11 09:24:19;;;;;;;20.20;9.88;;;2.60;69.80;;;;;;4996137;28;20374;-81
2022/01/11 09:26:46;;;;;;;16.88;7.53;;;2.60;70.60;;;;;;4996544;28;20056;-82
2022/01/11 09:29:11;;;;;;;13.70;6.53;;;2.70;69.90;;;;;;4980192;28;20053;-81
2022/01/11 09:31:37;;;;;;;;;;;2.70;68.80;;;;;;4998805;28;20018;-81
2022/01/11 09:34:03;;;;;;;11.35;5.88;;;2.80;68.80;;;;;;4998145;28;19910;-82
2022/01/11 09:36:29;;;;;;;;;;;2.70;70.60;;;;;;4998690;28;20007;-79
2022/01/11 09:38:55;;;;;;;15.23;8.00;;;2.60;70.30;;;;;;4996970;28;20450;-81
2022/01/11 09:41:20;;;;;;;;;;;2.60;70.20;;;;;;4998474;28;20546;-81
2022/01/11 09:43:46;;;;;;;9.85;5.25;;;2.50;71.30;;;;;;4998096;28;19906;-81
2022/01/11 09:46:12;;;;;;;;;;;2.60;70.20;;;;;;4981025;28;20029;-80
2022/01/11 09:48:38;;;;;;;15.88;7.25;;;2.70;69.40;;;;;;4980006;28;19921;-80
2022/01/11 09:51:04;;;;;;;12.77;6.25;;;2.70;71.10;;;;;;4980060;28;20047;-82
2022/01/11 09:53:30;;;;;;;;;;;2.60;72.00;;;;;;4997473;28;20056;-81
2022/01/11 09:55:56;;;;;;;12.13;6.40;;;2.60;71.10;;;;;;4979473;28;19906;-80
2022/01/11 09:58:22;;;;;;;13.52;6.13;;;2.70;71.10;;;;;;4978420;28;20015;-79
2022/01/11 10:00:47;;;;;;;;;;;2.60;71.00;;;;;;4996248;28;20043;-81
2022/01/11 10:03:15;;;;;;;11.77;4.90;;;2.60;70.20;;;;;;4979224;28;19913;-80
2022/01/11 10:05:41;;;;;;;15.00;6.03;;;2.60;71.60;;;;;;4996343;28;20086;-82
2022/01/11 10:08:23;;;;;;;11.73;6.10;;;2.60;71.20;;;;;;4978580;28;20483;-81
2022/01/11 10:10:52;;;;;;;11.45;5.47;;;2.80;70.30;;;;;;4995588;28;20054;-81
2022/01/11 10:13:39;;;;;;;11.85;5.95;;;2.70;70.90;;;;;;4978258;28;20031;-80
2022/01/11 10:16:21;;;;;;;16.15;7.57;;;2.50;71.70;;;;;;4996102;28;20026;-80
2022/01/11 10:18:48;;;;;;;42.22;19.48;;;2.50;74.40;;;;;;4976303;28;20031;-81
2022/01/11 10:21:50;;;;;;;14.70;6.30;;;2.60;74.50;;;;;;4994206;28;20011;-82
2022/01/11 10:24:32;;;;;;;13.23;5.45;;;2.70;72.40;;;;;;4899174;29;20017;-81
2022/01/11 10:27:03;;;;;;;12.25;5.55;;;2.80;70.20;;;;;;4987058;28;20113;-78
2022/01/11 10:29:36;;;;;;;15.95;5.85;;;3.00;67.70;;;;;;4994006;28;20026;-82
2022/01/11 10:32:34;;;;;;;11.60;5.57;;;2.80;68.50;;;;;;4993271;28;20026;-81
2022/01/11 10:35:04;;;;;;;10.55;3.75;;;2.90;67.20;;;;;;4995010;28;20050;-80
2022/01/11 10:37:40;;;;;;;18.15;6.25;;;2.90;66.70;;;;;;4978028;28;20031;-81
2022/01/11 10:40:35;;;;;;;10.35;4.78;;;2.90;67.50;;;;;;4977260;28;20026;-82
2022/01/11 10:43:05;;;;;;;18.15;5.55;;;2.80;68.10;;;;;;4992514;28;20058;-81
2022/01/11 10:45:33;;;;;;;13.60;5.43;;;2.90;67.40;;;;;;4976634;28;20037;-82
2022/01/11 10:48:05;;;;;;;15.38;6.47;;;2.80;68.60;;;;;;4997011;28;20015;-81
2022/01/11 10:50:49;;;;;;;9.48;4.57;;;2.90;68.90;;;;;;4976900;28;20058;-81
2022/01/11 10:53:20;;;;;;;9.73;4.22;;;3.00;66.30;;;;;;4993339;28;20022;-81
2022/01/11 10:55:57;;;;;;;7.47;3.47;;;3.10;66.90;;;;;;4975970;28;20054;-82
2022/01/11 10:58:24;;;;;;;9.82;4.10;;;3.10;66.10;;;;;;4993551;28;20027;-80
2022/01/11 11:00:52;;;;;;;15.73;7.90;;;3.30;65.40;;;;;;4993685;28;20054;-82
2022/01/11 11:03:23;;;;;;;12.20;4.72;;;3.40;65.90;;;;;;4992386;28;20099;-82
2022/01/11 11:06:01;;;;;;;8.88;4.53;;;3.20;65.50;;;;;;4993425;28;20027;-81
2022/01/11 11:08:35;;;;;;;10.82;5.57;;;3.10;65.80;;;;;;4992517;28;20034;-81
2022/01/11 11:11:00;;;;;;;15.38;6.40;;;3.10;67.00;;;;;;4975603;28;20034;-81
2022/01/11 11:13:31;;;;;;;;;;;3.10;66.80;;;;;;4976556;28;20042;-81
2022/01/11 11:16:07;;;;;;;12.65;5.60;;;3.20;65.70;;;;;;4993274;28;19914;-81
2022/01/11 11:18:38;;;;;;;11.27;5.38;;;3.30;65.90;;;;;;4992010;28;20029;-80
2022/01/11 11:21:17;;;;;;;12.30;4.75;;;3.20;65.20;;;;;;4991305;28;20105;-79
2022/01/11 11:23:43;;;;;;;23.65;8.45;;;3.40;65.10;;;;;;4976433;28;20031;-81
2022/01/11 11:26:09;;;;;;;47.72;17.50;;;3.30;65.00;;;;;;4992497;28;20038;-82
2022/01/11 11:28:35;;;;;;;;;;;3.20;65.60;;;;;;4991498;28;20119;-81
2022/01/11 11:31:01;;;;;;;105.18;37.08;;;3.20;65.70;;;;;;4991854;28;19906;-81
2022/01/11 11:33:28;;;;;;;;;;;3.40;66.20;;;;;;4991211;28;20027;-80
2022/01/11 11:35:56;;;;;;;10.60;5.25;;;3.50;64.60;;;;;;4974848;28;19906;-80
2022/01/11 11:38:25;;;;;;;10.88;4.82;;;3.50;65.10;;;;;;4975541;28;20134;-79
2022/01/11 11:40:52;;;;;;;15.43;7.18;;;3.70;62.90;;;;;;4975368;28;20232;-80
2022/01/11 11:43:20;;;;;;;12.13;5.40;;;3.60;63.20;;;;;;4992499;28;20033;-82
2022/01/11 11:45:46;;;;;;;11.02;4.57;;;3.70;62.50;;;;;;4993064;28;20034;-81
2022/01/11 11:48:12;;;;;;;;;;;3.70;62.10;;;;;;4976343;28;20023;-80
2022/01/11 11:50:51;;;;;;;14.32;6.45;;;3.70;62.00;;;;;;4991988;28;19935;-81
2022/01/11 11:53:32;;;;;;;7.95;4.18;;;3.70;62.10;;;;;;4975486;28;20043;-80
2022/01/11 11:56:18;;;;;;;6.20;3.13;;;3.90;60.30;;;;;;4975381;28;20026;-81
2022/01/11 11:58:47;;;;;;;11.55;4.57;;;3.80;59.50;;;;;;4992637;28;20031;-81
2022/01/11 12:01:34;;;;;;;6.97;2.80;;;4.10;59.50;;;;;;4975311;28;20085;-82
2022/01/11 12:04:00;;;;;;;9.00;2.83;;;3.90;57.50;;;;;;4976028;28;20090;-82
2022/01/11 12:06:27;;;;;;;4.75;2.25;;;4.10;56.20;;;;;;4992180;28;20027;-81
2022/01/11 12:09:04;;;;;;;6.88;3.28;;;4.10;56.10;;;;;;4976618;28;20038;-82
2022/01/11 12:11:42;;;;;;;4.82;1.67;;;4.10;56.40;;;;;;4995326;28;20046;-82
2022/01/11 12:14:34;;;;;;;7.45;3.38;;;4.20;55.60;;;;;;4993437;28;20035;-81
2022/01/11 12:17:23;;;;;;;7.53;3.88;;;4.00;56.90;;;;;;4978816;28;20030;-81
2022/01/11 12:19:53;;;;;;;9.30;3.53;;;4.00;56.70;;;;;;4990008;28;20098;-82
2022/01/11 12:22:24;;;;;;;5.90;2.35;;;4.00;57.10;;;;;;4989656;28;20034;-80
2022/01/11 12:24:52;;;;;;;5.57;2.35;;;4.10;56.00;;;;;;4972781;28;20039;-81
2022/01/11 12:27:21;;;;;;;6.18;2.50;;;4.10;55.40;;;;;;4973721;28;20026;-81
2022/01/11 12:30:04;;;;;;;5.70;2.47;;;4.10;55.10;;;;;;4971976;28;20050;-81
2022/01/11 12:32:33;;;;;;;6.93;2.95;;;4.10;54.80;;;;;;4972884;28;20030;-81
2022/01/11 12:35:03;;;;;;;10.35;2.97;;;4.20;53.90;;;;;;4989430;28;20095;-80
2022/01/11 12:37:33;;;;;;;8.25;2.88;;;4.20;53.60;;;;;;4971524;28;20107;-81
2022/01/11 12:40:21;;;;;;;4.50;1.70;;;4.20;53.30;;;;;;4987670;28;20038;-79
2022/01/11 12:42:53;;;;;;;7.50;1.75;;;4.20;53.20;;;;;;4972173;28;20027;-81
2022/01/11 12:45:58;;;;;;;4.88;2.60;;;4.20;52.90;;;;;;4990514;28;20054;-81
2022/01/11 12:48:42;;;;;;;9.68;2.45;;;4.20;53.00;;;;;;4979329;28;20488;-78
2022/01/11 12:51:09;;;;;;;13.65;3.00;;;4.00;54.00;;;;;;4985189;28;20030;-80
2022/01/11 12:53:35;;;;;;;5.25;2.70;;;4.20;53.20;;;;;;4968672;28;20180;-81
2022/01/11 12:56:02;;;;;;;9.55;3.85;;;4.10;53.80;;;;;;4970857;28;20035;-78
2022/01/11 12:58:29;;;;;;;5.97;2.45;;;4.20;53.00;;;;;;4969870;28;20039;-80
2022/01/11 13:00:56;;;;;;;9.57;3.78;;;4.10;53.20;;;;;;4970582;28;20047;-81
2022/01/11 13:03:22;;;;;;;7.15;3.50;;;4.10;53.40;;;;;;4987891;28;20065;-80
2022/01/11 13:05:53;;;;;;;6.80;2.15;;;4.10;53.70;;;;;;4972792;28;20027;-81
2022/01/11 13:08:29;;;;;;;3.88;1.48;;;4.20;52.30;;;;;;4974904;28;20103;-80
2022/01/11 13:10:55;;;;;;;5.05;2.05;;;4.20;51.60;;;;;;4989207;28;20026;-81
2022/01/11 13:13:25;;;;;;;9.40;3.75;;;4.20;52.40;;;;;;4972645;28;20034;-80
2022/01/11 13:15:50;;;;;;;4.82;1.92;;;4.20;52.30;;;;;;4990243;28;20031;-80
2022/01/11 13:18:22;;;;;;;8.70;2.97;;;4.20;52.10;;;;;;4971289;28;20044;-80